Time;durP1;ratioP1;P1;durP2;ratioP2;P2;SDS_P1;SDS_P2;PMS_P1;PMS_P2;Temp;Humidity;BMP_temperature;BMP_pressure;BME280_temperature;BME280_humidity;BME280_pressure;Samples;Min_cycle;Max_cycle;Signal;HPM_P1;HPM_P2
2020/12/20 00:02:12;;;;;;;9.47;3.07;;;;;;;9.92;66.49;96738.72;4937756;28;20779;-46
2020/12/20 00:04:39;;;;;;;3.33;2.53;;;;;;;9.86;66.52;96741.66;4936714;28;20814;-46
2020/12/20 00:07:21;;;;;;;5.93;2.23;;;;;;;9.85;66.16;96739.13;4937331;28;20921;-45
2020/12/20 00:09:48;;;;;;;7.90;2.37;;;;;;;9.84;66.02;96743.50;4937737;28;20568;-45
2020/12/20 00:12:15;;;;;;;4.50;2.43;;;;;;;9.81;66.31;96733.28;4936467;28;20541;-45
2020/12/20 00:14:41;;;;;;;5.23;2.90;;;;;;;9.83;66.20;96728.84;4935551;28;20991;-45
2020/12/20 00:17:11;;;;;;;8.13;2.57;;;;;;;9.90;66.03;96737.13;4936762;28;20976;-45
2020/12/20 00:19:38;;;;;;;4.93;2.20;;;;;;;9.83;65.90;96708.03;4939164;28;20535;-45
2020/12/20 00:22:07;;;;;;;3.47;2.27;;;;;;;9.94;65.81;96731.66;4937833;28;20460;-46
2020/12/20 00:24:36;;;;;;;5.03;2.80;;;;;;;9.92;65.70;96730.91;4940612;28;21016;-46
2020/12/20 00:27:04;;;;;;;4.57;2.83;;;;;;;9.84;65.74;96737.47;4939699;28;20769;-45
2020/12/20 00:29:33;;;;;;;6.23;2.97;;;;;;;9.76;66.33;96732.72;4946194;28;21348;-45
2020/12/20 00:32:01;;;;;;;4.60;2.50;;;;;;;9.72;66.66;96749.38;4940837;28;20467;-45
2020/12/20 00:34:28;;;;;;;4.10;2.20;;;;;;;9.71;66.91;96745.13;4940354;28;21118;-45
2020/12/20 00:36:54;;;;;;;3.90;2.50;;;;;;;9.50;67.01;96716.91;4940034;28;20543;-45
2020/12/20 00:39:22;;;;;;;6.53;2.50;;;;;;;9.23;67.05;96654.31;4935322;28;20466;-45
2020/12/20 00:41:52;;;;;;;5.20;2.83;;;;;;;9.69;66.95;96736.59;4938173;28;20989;-46
2020/12/20 00:44:20;;;;;;;5.20;2.30;;;;;;;9.74;67.04;96741.50;4939690;28;20852;-45
2020/12/20 00:46:48;;;;;;;5.60;2.30;;;;;;;9.52;67.35;96708.09;4940762;28;20451;-45
2020/12/20 00:49:21;;;;;;;4.93;2.20;;;;;;;9.76;66.71;96729.25;4936170;28;20564;-45
2020/12/20 00:51:49;;;;;;;4.27;2.57;;;;;;;9.82;66.28;96728.91;4939629;28;20772;-44
2020/12/20 00:54:16;;;;;;;5.37;2.90;;;;;;;9.86;66.12;96730.41;4938719;28;20550;-44
2020/12/20 00:56:43;;;;;;;4.53;1.97;;;;;;;9.84;66.41;96720.13;4938307;28;20453;-45
2020/12/20 00:59:12;;;;;;;2.70;1.63;;;;;;;9.81;65.99;96712.47;4938825;28;20995;-45
2020/12/20 01:01:39;;;;;;;3.83;2.20;;;;;;;9.92;65.55;96714.47;4941725;28;20625;-39
2020/12/20 01:04:06;;;;;;;4.30;2.27;;;;;;;9.90;65.81;96709.38;4940427;28;20588;-39
2020/12/20 01:06:33;;;;;;;3.70;2.33;;;;;;;10.00;65.57;96707.91;4941147;28;21016;-39
2020/12/20 01:09:00;;;;;;;6.23;2.20;;;;;;;9.89;65.49;96692.06;4940244;28;20933;-39
2020/12/20 01:11:27;;;;;;;6.23;2.03;;;;;;;9.90;65.44;96700.72;4940906;28;20473;-39
2020/12/20 01:13:55;;;;;;;5.70;2.00;;;;;;;10.00;65.90;96712.25;4940166;28;20517;-39
2020/12/20 01:16:25;;;;;;;6.53;2.20;;;;;;;9.85;65.82;96714.00;4939010;28;20548;-39
2020/12/20 01:18:53;;;;;;;5.67;2.03;;;;;;;9.82;65.43;96713.31;4942286;28;20504;-39
2020/12/20 01:21:20;;;;;;;4.93;2.23;;;;;;;9.82;65.50;96711.53;4944213;28;20838;-39
2020/12/20 01:23:49;;;;;;;3.17;2.17;;;;;;;9.75;65.64;96715.44;4945047;28;20473;-39
2020/12/20 01:26:16;;;;;;;3.47;2.20;;;;;;;9.72;66.00;96705.22;4943644;28;20478;-39
2020/12/20 01:28:43;;;;;;;3.47;2.47;;;;;;;9.69;65.69;96713.19;4946394;28;21042;-39
2020/12/20 01:31:11;;;;;;;3.17;2.20;;;;;;;9.67;66.01;96709.81;4944975;28;20849;-39
2020/12/20 01:33:40;;;;;;;3.30;2.17;;;;;;;9.69;65.97;96718.38;4939631;28;20497;-39
2020/12/20 01:36:07;;;;;;;4.53;2.03;;;;;;;9.69;65.98;96722.72;4939183;28;20520;-39
2020/12/20 01:38:34;;;;;;;3.13;2.10;;;;;;;9.70;65.63;96719.22;4936881;28;20560;-39
2020/12/20 01:41:35;;;;;;;3.03;1.77;;;;;;;9.66;65.99;96717.72;4940655;28;20744;-39
2020/12/20 01:44:02;;;;;;;4.50;2.07;;;;;;;9.72;66.07;96728.59;4937548;28;20506;-41
2020/12/20 01:46:31;;;;;;;3.87;2.00;;;;;;;9.73;65.89;96732.88;4937493;28;20466;-39
2020/12/20 01:48:58;;;;;;;2.60;1.87;;;;;;;9.75;65.05;96731.03;4937406;28;20564;-38
2020/12/20 01:51:25;;;;;;;3.30;2.07;;;;;;;9.80;65.07;96730.78;4938909;28;21185;-39
2020/12/20 01:53:52;;;;;;;5.67;2.43;;;;;;;9.80;64.97;96731.59;4939278;28;20499;-38
2020/12/20 01:56:19;;;;;;;3.90;2.07;;;;;;;9.79;65.22;96735.13;4939122;28;20529;-38
2020/12/20 01:58:47;;;;;;;4.53;2.63;;;;;;;9.79;65.52;96729.94;4937720;28;20495;-39
2020/12/20 02:01:14;;;;;;;3.03;1.80;;;;;;;9.79;65.46;96729.94;4938789;28;20572;-39
2020/12/20 02:03:41;;;;;;;4.30;2.10;;;;;;;9.79;65.63;96722.13;4938148;28;20508;-39
2020/12/20 02:06:13;;;;;;;4.67;2.43;;;;;;;9.79;65.79;96722.13;4938409;28;20560;-39
2020/12/20 02:08:41;;;;;;;7.80;2.37;;;;;;;9.83;65.81;96720.19;4939083;28;20509;-39
2020/12/20 02:11:10;;;;;;;4.30;1.80;;;;;;;9.88;65.35;96726.78;4939050;28;21167;-39
2020/12/20 02:13:42;;;;;;;4.57;2.43;;;;;;;9.84;65.43;96727.91;4937951;28;21177;-39
2020/12/20 02:16:09;;;;;;;3.70;2.00;;;;;;;9.84;65.38;96727.91;4938577;28;20828;-39
2020/12/20 02:18:36;;;;;;;4.80;2.13;;;;;;;9.83;65.45;96725.41;4937692;28;20462;-39
2020/12/20 02:21:11;;;;;;;3.70;2.07;;;;;;;9.90;65.43;96717.16;4938551;28;20930;-39
2020/12/20 02:23:41;;;;;;;2.90;1.83;;;;;;;9.83;65.27;96699.41;4940896;28;20972;-39
2020/12/20 02:26:09;;;;;;;3.87;2.03;;;;;;;9.90;65.47;96705.91;4941327;28;20601;-39
2020/12/20 02:28:36;;;;;;;4.50;2.40;;;;;;;9.94;65.33;96708.25;4943069;28;20990;-39
2020/12/20 02:31:03;;;;;;;3.67;2.00;;;;;;;9.98;65.63;96717.56;4935349;28;20980;-39
2020/12/20 02:33:30;;;;;;;3.80;2.03;;;;;;;9.95;65.75;96714.31;4936921;28;20474;-39
2020/12/20 02:35:57;;;;;;;3.70;2.47;;;;;;;9.85;66.24;96711.38;4936232;28;20461;-39
2020/12/20 02:38:25;;;;;;;3.40;2.10;;;;;;;9.76;67.24;96706.72;4936821;28;20857;-39
2020/12/20 02:40:52;;;;;;;4.70;2.10;;;;;;;9.72;67.08;96713.00;4936436;28;20517;-39
2020/12/20 02:43:19;;;;;;;4.70;2.13;;;;;;;9.70;67.14;96699.25;4936465;28;20949;-38
2020/12/20 02:45:46;;;;;;;4.87;2.63;;;;;;;9.71;67.73;96700.94;4937004;28;20941;-39
2020/12/20 02:48:13;;;;;;;2.40;1.70;;;;;;;9.73;68.12;96704.28;4935080;28;20537;-41
2020/12/20 02:50:40;;;;;;;6.23;2.80;;;;;;;9.78;68.01;96699.66;4936280;28;20454;-39
2020/12/20 02:53:06;;;;;;;3.90;1.90;;;;;;;9.79;67.83;96706.53;4937260;28;20483;-39
2020/12/20 02:55:35;;;;;;;3.80;2.20;;;;;;;9.68;68.38;96679.47;4938636;28;20762;-39
2020/12/20 02:58:02;;;;;;;5.03;2.23;;;;;;;9.87;69.51;96712.13;4937432;28;20929;-39
2020/12/20 03:00:29;;;;;;;4.90;2.60;;;;;;;9.59;70.24;96712.00;4956386;28;20561;-39
2020/12/20 03:02:56;;;;;;;3.70;2.27;;;;;;;9.59;70.42;96690.41;4957759;28;20903;-39
2020/12/20 03:05:23;;;;;;;5.13;2.60;;;;;;;9.71;69.88;96706.13;4955972;28;20513;-39
2020/12/20 03:07:50;;;;;;;5.63;1.97;;;;;;;9.76;70.00;96696.31;4955820;28;20456;-39
2020/12/20 03:10:17;;;;;;;4.43;2.67;;;;;;;9.83;69.74;96689.00;4956678;28;20520;-39
2020/12/20 03:12:46;;;;;;;4.20;2.30;;;;;;;9.86;69.59;96681.00;4956398;28;20931;-39
2020/12/20 03:15:13;;;;;;;3.13;1.87;;;;;;;10.11;69.08;96692.53;4955953;28;20975;-39
2020/12/20 03:17:40;;;;;;;9.63;3.40;;;;;;;9.94;69.32;96707.44;4956568;28;20849;-39
2020/12/20 03:20:07;;;;;;;5.53;2.17;;;;;;;9.78;69.08;96707.47;4957148;28;20473;-39
2020/12/20 03:22:34;;;;;;;5.33;2.30;;;;;;;9.64;68.98;96702.22;4960985;28;20453;-39
2020/12/20 03:25:01;;;;;;;5.60;2.30;;;;;;;9.55;69.36;96705.34;4956549;28;21054;-39
2020/12/20 03:27:28;;;;;;;3.60;2.17;;;;;;;9.53;69.59;96696.75;4959354;28;20452;-39
2020/12/20 03:29:56;;;;;;;3.90;2.23;;;;;;;9.69;69.58;96701.94;4955261;28;20877;-39
2020/12/20 03:32:23;;;;;;;2.53;1.77;;;;;;;9.41;69.21;96648.13;4955257;28;20449;-39
2020/12/20 03:34:50;;;;;;;2.47;1.60;;;;;;;9.63;69.56;96695.34;4954860;28;21034;-39
2020/12/20 03:37:17;;;;;;;5.30;2.03;;;;;;;9.61;69.95;96698.94;4955773;28;20539;-39
2020/12/20 03:39:44;;;;;;;3.27;2.30;;;;;;;9.60;69.95;96698.09;4954853;28;20469;-39
2020/12/20 03:42:11;;;;;;;4.33;2.40;;;;;;;9.49;70.32;96692.69;4954488;28;20528;-39
2020/12/20 03:44:38;;;;;;;3.27;2.23;;;;;;;9.52;70.43;96699.47;4954649;28;20859;-39
2020/12/20 03:47:05;;;;;;;8.43;2.70;;;;;;;9.37;70.08;96649.19;4955402;28;21164;-39
2020/12/20 03:49:32;;;;;;;5.83;2.73;;;;;;;9.48;70.16;96688.41;4954630;28;20476;-39
2020/12/20 03:51:59;;;;;;;4.70;3.20;;;;;;;9.38;70.46;96691.59;4954490;28;20555;-43
2020/12/20 03:54:26;;;;;;;5.70;2.90;;;;;;;9.23;71.32;96687.25;4955356;28;20472;-39
2020/12/20 03:56:55;;;;;;;4.87;2.53;;;;;;;9.25;71.57;96688.00;4954863;28;20549;-39
2020/12/20 03:59:22;;;;;;;4.03;2.10;;;;;;;9.09;71.49;96672.41;4950260;28;20805;-39
2020/12/20 04:01:49;;;;;;;4.03;2.60;;;;;;;9.33;71.65;96686.66;4953791;28;20755;-39
2020/12/20 04:04:17;;;;;;;4.77;2.23;;;;;;;9.20;72.25;96690.88;4955195;28;20811;-39
2020/12/20 04:06:44;;;;;;;3.40;2.50;;;;;;;9.10;72.35;96686.25;4954708;28;20470;-39
2020/12/20 04:09:11;;;;;;;3.07;2.47;;;;;;;9.19;72.57;96686.59;4953901;28;20484;-39
2020/12/20 04:11:38;;;;;;;4.60;3.00;;;;;;;9.14;72.51;96673.00;4954208;28;20453;-39
2020/12/20 04:14:05;;;;;;;3.40;2.20;;;;;;;9.22;72.19;96691.59;4954910;28;20469;-39
2020/12/20 04:16:31;;;;;;;6.60;2.80;;;;;;;9.23;72.71;96692.47;4954675;28;20776;-39
2020/12/20 04:18:58;;;;;;;6.00;2.93;;;;;;;9.18;72.88;96684.91;4953711;28;20511;-39
2020/12/20 04:21:31;;;;;;;11.10;3.43;;;;;;;9.11;72.80;96696.56;4956567;28;20461;-39
2020/12/20 04:23:58;;;;;;;9.00;3.40;;;;;;;9.06;72.73;96685.59;4958679;28;20960;-39
2020/12/20 04:26:25;;;;;;;5.93;3.17;;;;;;;8.39;73.73;96607.13;4955124;28;20880;-39
2020/12/20 04:28:52;;;;;;;6.63;3.03;;;;;;;8.88;73.80;96690.94;4959070;28;20563;-39
2020/12/20 04:31:18;;;;;;;5.70;3.00;;;;;;;8.87;73.53;96690.09;4955748;28;20528;-39
2020/12/20 04:33:46;;;;;;;5.60;3.20;;;;;;;8.87;73.65;96687.50;4954857;28;20869;-39
2020/12/20 04:36:13;;;;;;;6.47;3.27;;;;;;;8.87;73.56;96687.50;4955577;28;20453;-39
2020/12/20 04:38:42;;;;;;;3.37;2.43;;;;;;;8.89;73.38;96685.66;4954924;28;20547;-39
2020/12/20 04:41:09;;;;;;;7.27;3.23;;;;;;;8.96;73.64;96689.63;4955526;28;20545;-39
2020/12/20 04:43:37;;;;;;;6.67;3.17;;;;;;;9.10;73.52;96692.31;4954072;28;20562;-39
2020/12/20 04:46:05;;;;;;;5.20;3.20;;;;;;;9.12;72.98;96674.88;4954458;28;20466;-39
2020/12/20 04:48:36;;;;;;;5.47;3.30;;;;;;;9.21;72.79;96695.13;4955524;28;20744;-39
2020/12/20 04:51:04;;;;;;;6.37;3.20;;;;;;;9.11;73.37;96699.16;4953745;28;20987;-39
2020/12/20 04:53:31;;;;;;;6.33;3.70;;;;;;;9.14;73.55;96703.34;4954719;28;20848;-39
2020/12/20 04:56:03;;;;;;;5.17;3.10;;;;;;;9.13;73.48;96699.06;4953727;28;20451;-43
2020/12/20 04:58:30;;;;;;;7.57;3.20;;;;;;;9.05;73.70;96696.91;4953417;28;20947;-38
2020/12/20 05:00:58;;;;;;;9.17;3.43;;;;;;;9.13;73.34;96694.72;4957604;28;20765;-38
2020/12/20 05:03:25;;;;;;;5.07;2.90;;;;;;;9.17;73.33;96683.25;4961019;28;20966;-39
2020/12/20 05:05:51;;;;;;;4.70;2.90;;;;;;;9.29;72.74;96697.31;4956122;28;20452;-38
2020/12/20 05:08:21;;;;;;;7.83;3.63;;;;;;;9.25;72.76;96707.03;4954403;28;20453;-38
2020/12/20 05:10:49;;;;;;;6.20;2.80;;;;;;;9.35;72.68;96703.00;4954716;28;20919;-39
2020/12/20 05:13:17;;;;;;;7.50;3.20;;;;;;;9.40;72.38;96701.00;4957288;28;20485;-39
2020/12/20 05:15:45;;;;;;;6.07;3.00;;;;;;;9.49;72.29;96700.47;4958852;28;20528;-39
2020/12/20 05:18:13;;;;;;;3.63;2.70;;;;;;;9.58;71.72;96699.94;4959871;28;20489;-39
2020/12/20 05:20:42;;;;;;;4.57;2.90;;;;;;;9.53;71.57;96706.34;4959423;28;20481;-39
2020/12/20 05:23:10;;;;;;;9.33;3.10;;;;;;;9.60;71.62;96703.28;4963074;28;20460;-39
2020/12/20 05:25:39;;;;;;;7.27;2.90;;;;;;;9.54;72.25;96703.66;4958520;28;20501;-38
2020/12/20 05:28:11;;;;;;;5.93;3.33;;;;;;;9.55;72.00;96696.69;4961908;28;20678;-39
2020/12/20 05:30:40;;;;;;;5.73;3.20;;;;;;;9.55;71.71;96705.34;4957643;28;20856;-38
2020/12/20 05:33:08;;;;;;;5.30;3.53;;;;;;;9.50;72.22;96696.94;4957949;28;20556;-38
2020/12/20 05:35:35;;;;;;;6.53;3.30;;;;;;;9.53;72.54;96701.97;4957311;28;20994;-38
2020/12/20 05:38:04;;;;;;;4.63;2.80;;;;;;;9.54;72.13;96698.47;4955829;28;20520;-39
2020/12/20 05:40:33;;;;;;;6.07;3.33;;;;;;;9.40;72.27;96690.59;4957803;28;20499;-39
2020/12/20 05:43:01;;;;;;;6.83;3.33;;;;;;;9.42;73.05;96698.28;4957289;28;21016;-39
2020/12/20 05:45:30;;;;;;;5.37;2.90;;;;;;;9.36;72.84;96689.09;4957460;28;20877;-38
2020/12/20 05:47:58;;;;;;;7.13;3.27;;;;;;;9.42;72.99;96691.34;4957870;28;20586;-39
2020/12/20 05:50:28;;;;;;;5.40;3.43;;;;;;;9.54;72.41;96693.28;4957525;28;20588;-39
2020/12/20 05:53:01;;;;;;;5.27;3.30;;;;;;;9.35;72.30;96691.75;4957352;28;20646;-40
2020/12/20 05:55:38;;;;;;;8.83;3.80;;;;;;;9.26;72.75;96690.53;4953951;28;20579;-38
2020/12/20 05:58:10;;;;;;;12.87;3.80;;;;;;;9.26;72.49;96687.94;4956259;28;20449;-38
2020/12/20 06:00:38;;;;;;;5.60;3.20;;;;;;;9.25;72.58;96686.25;4957763;28;20536;-39
2020/12/20 06:03:07;;;;;;;5.93;3.43;;;;;;;9.24;72.85;96691.53;4962621;28;20456;-39
2020/12/20 06:05:36;;;;;;;5.90;3.47;;;;;;;9.24;72.82;96694.97;4965888;28;20942;-39
2020/12/20 06:08:05;;;;;;;4.70;2.90;;;;;;;9.16;73.09;96691.94;4958297;28;21044;-39
2020/12/20 06:10:36;;;;;;;5.80;3.03;;;;;;;9.19;72.92;96696.97;4962726;28;20865;-39
2020/12/20 06:13:04;;;;;;;4.43;2.80;;;;;;;9.31;72.60;96698.88;4959050;28;20873;-44
2020/12/20 06:15:35;;;;;;;5.30;3.00;;;;;;;9.18;72.71;96694.47;4957101;28;20541;-44
2020/12/20 06:18:10;;;;;;;4.73;2.70;;;;;;;8.53;72.87;96588.19;4957128;28;20796;-45
2020/12/20 06:20:58;;;;;;;11.73;4.43;;;;;;;9.30;72.88;96710.19;4959335;28;20967;-45
2020/12/20 06:23:27;;;;;;;3.83;2.57;;;;;;;9.25;73.54;96707.03;4955531;28;20882;-39
2020/12/20 06:25:56;;;;;;;4.13;3.00;;;;;;;9.33;73.43;96722.19;4977130;23;20484;-39
2020/12/20 06:28:25;;;;;;;4.77;2.60;;;;;;;9.32;73.12;96725.72;4954703;28;21079;-39
2020/12/20 06:30:53;;;;;;;6.83;3.93;;;;;;;9.37;73.36;96714.13;4958340;28;20462;-39
2020/12/20 06:33:39;;;;;;;5.53;3.20;;;;;;;9.42;73.04;96719.06;4957238;28;20461;-39
2020/12/20 06:36:09;;;;;;;4.80;2.77;;;;;;;9.38;73.13;96713.19;4956596;28;20453;-39
2020/12/20 06:38:36;;;;;;;5.27;2.90;;;;;;;9.32;73.04;96716.16;4957037;28;20475;-39
2020/12/20 06:41:03;;;;;;;6.03;3.30;;;;;;;9.43;72.76;96711.19;4955629;28;20547;-39
2020/12/20 06:46:49;;;;;;;7.27;3.60;;;;;;;9.60;72.36;96712.88;4898510;29;20961;-39
2020/12/20 06:49:35;;;;;;;7.20;3.50;;;;;;;9.54;72.33;96708.84;4899486;29;21024;-39
2020/12/20 06:52:27;;;;;;;4.97;2.30;;;;;;;9.52;72.66;96721.06;4899380;29;20491;-39
2020/12/20 06:55:01;;;;;;;5.67;2.90;;;;;;;9.47;72.42;96724.84;4903645;29;20502;-39
2020/12/20 06:57:28;;;;;;;4.70;3.03;;;;;;;9.43;72.60;96726.78;4897306;29;20958;-40
2020/12/20 06:59:56;;;;;;;7.73;3.07;;;;;;;9.41;72.79;96728.63;4901235;29;20476;-39
2020/12/20 07:02:42;;;;;;;6.50;2.73;;;;;;;9.38;72.65;96731.38;4899371;29;20951;-42
2020/12/20 07:05:34;;;;;;;5.03;3.07;;;;;;;9.54;72.52;96734.00;4897472;29;20604;-39
2020/12/20 07:08:09;;;;;;;5.67;3.60;;;;;;;9.45;72.61;96734.50;4899032;29;20988;-39
2020/12/20 07:10:44;;;;;;;3.80;2.83;;;;;;;9.39;73.22;96740.03;4901165;29;20826;-39
2020/12/20 07:13:12;;;;;;;6.17;3.20;;;;;;;9.39;73.16;96745.22;4899385;29;20873;-39
2020/12/20 07:15:50;;;;;;;7.83;3.33;;;;;;;9.45;72.83;96750.91;4900483;29;20514;-39
2020/12/20 07:18:40;;;;;;;9.90;3.07;;;;;;;9.51;72.91;96749.75;4899788;29;21021;-39
2020/12/20 07:21:10;;;;;;;6.03;3.37;;;;;;;9.57;73.54;96763.25;4901061;29;20460;-46
2020/12/20 07:23:41;;;;;;;7.50;2.97;;;;;;;9.41;73.45;96731.25;4900339;29;20467;-46
2020/12/20 07:26:10;;;;;;;5.47;3.50;;;;;;;9.65;73.47;96762.84;4903983;29;20563;-44
2020/12/20 07:28:38;;;;;;;4.47;2.70;;;;;;;9.66;73.58;96764.50;4899666;29;20987;-45
2020/12/20 07:31:12;;;;;;;5.80;3.13;;;;;;;9.58;71.66;96759.72;4898891;29;20992;-39
2020/12/20 07:33:38;;;;;;;3.43;2.20;;;;;;;9.54;71.29;96754.78;4900095;29;20562;-39
2020/12/20 07:36:05;;;;;;;5.87;3.00;;;;;;;9.25;72.51;96758.97;4902746;29;20483;-45
2020/12/20 07:38:33;;;;;;;8.53;3.30;;;;;;;9.17;73.12;96761.16;4898428;29;21038;-44
2020/12/20 07:41:05;;;;;;;5.40;2.80;;;;;;;9.22;73.13;96756.53;4900297;29;20939;-39
2020/12/20 07:43:32;;;;;;;5.93;3.40;;;;;;;9.27;73.16;96766.66;4897221;29;20483;-39
2020/12/20 07:45:59;;;;;;;4.30;2.70;;;;;;;9.20;73.65;96766.16;4897486;29;20891;-39
2020/12/20 07:48:27;;;;;;;7.63;2.93;;;;;;;8.94;73.85;96722.56;4899787;29;20490;-44
2020/12/20 07:51:07;;;;;;;7.10;3.20;;;;;;;9.22;74.22;96769.50;4899584;29;20942;-39
2020/12/20 07:57:00;;;;;;;6.00;3.40;;;;;;;9.27;73.70;96758.88;4898541;29;20944;-48
2020/12/20 07:59:27;;;;;;;5.63;2.77;;;;;;;9.20;74.63;96766.16;4898265;29;20479;-44
2020/12/20 08:01:54;;;;;;;7.53;3.63;;;;;;;9.30;74.41;96771.72;4900670;29;20516;-45
2020/12/20 08:04:22;;;;;;;6.80;3.60;;;;;;;9.42;73.92;96771.88;4898122;29;20552;-45
2020/12/20 08:06:50;;;;;;;4.83;2.83;;;;;;;9.42;74.18;96773.63;4899784;29;20967;-49
2020/12/20 08:09:22;;;;;;;6.40;3.70;;;;;;;9.42;73.79;96771.88;4900304;29;20514;-40
2020/12/20 08:11:52;;;;;;;12.40;3.43;;;;;;;9.53;73.76;96779.91;4900508;29;20991;-45
2020/12/20 08:14:22;;;;;;;9.80;3.73;;;;;;;9.66;73.69;96780.09;4943644;23;20878;-40
2020/12/20 08:16:50;;;;;;;5.60;3.40;;;;;;;9.66;73.34;96772.28;4974582;28;20813;-40
2020/12/20 08:19:19;;;;;;;6.70;3.20;;;;;;;9.62;73.00;96774.22;4974732;28;20507;-40
2020/12/20 08:21:51;;;;;;;6.93;3.30;;;;;;;9.53;72.73;96769.50;4976294;28;20451;-39
2020/12/20 08:24:21;;;;;;;7.57;3.40;;;;;;;9.48;73.47;96784.53;4974605;28;21000;-46
2020/12/20 08:26:48;;;;;;;9.23;3.43;;;;;;;9.37;74.16;96781.66;4975674;28;20969;-46
2020/12/20 08:29:17;;;;;;;6.10;3.60;;;;;;;9.40;74.34;96783.25;4976167;28;21024;-45
2020/12/20 08:31:47;;;;;;;6.83;3.67;;;;;;;9.57;75.18;96771.03;4976494;28;20920;-45
2020/12/20 08:34:20;;;;;;;9.17;3.50;;;;;;;9.58;73.10;96775.31;4973720;28;20503;-45
2020/12/20 08:36:50;;;;;;;8.07;3.20;;;;;;;9.75;73.95;96780.44;4982394;28;21121;-45
2020/12/20 08:39:21;;;;;;;5.37;3.17;;;;;;;9.93;73.21;96779.38;4974932;28;20472;-45
2020/12/20 08:42:00;;;;;;;6.90;2.90;;;;;;;10.33;72.38;96788.38;4978733;28;20486;-39
2020/12/20 08:44:27;;;;;;;7.03;3.60;;;;;;;10.70;70.79;96736.66;4990607;23;20864;-39
2020/12/20 08:50:25;;;;;;;7.00;3.50;;;;;;;13.02;65.35;96784.06;4920588;28;21119;-46
2020/12/20 08:52:58;;;;;;;7.53;3.17;;;;;;;14.08;60.45;96777.31;4922713;29;20522;-45
2020/12/20 08:55:28;;;;;;;7.83;3.40;;;;;;;13.82;59.52;96779.19;4920751;28;20481;-46
2020/12/20 08:58:04;;;;;;;4.70;2.93;;;;;;;13.50;60.63;96775.41;4962045;23;21017;-40
2020/12/20 09:00:32;;;;;;;7.53;3.23;;;;;;;13.67;61.17;96780.31;4999517;28;20466;-39
2020/12/20 09:03:00;;;;;;;6.00;3.10;;;;;;;14.10;59.71;96778.03;5000837;28;20526;-46
2020/12/20 09:05:29;;;;;;;6.63;3.50;;;;;;;14.00;59.76;96777.03;5000271;28;20529;-45
2020/12/20 09:07:57;;;;;;;7.43;2.97;;;;;;;13.56;60.21;96780.22;5002079;28;21000;-39
2020/12/20 09:10:26;;;;;;;8.60;3.13;;;;;;;13.65;60.60;96779.53;4993841;28;20558;-42
2020/12/20 09:12:54;;;;;;;5.57;3.10;;;;;;;13.72;60.70;96783.41;4998642;28;20914;-39
2020/12/20 09:15:22;;;;;;;11.37;3.73;;;;;;;13.82;60.27;96783.59;4999088;28;20522;-45
2020/12/20 09:20:30;;;;;;;5.03;3.20;;;;;;;14.09;59.56;96792.06;4920129;29;20497;-40
2020/12/20 09:22:58;;;;;;;6.13;2.70;;;;;;;14.53;58.85;96781.81;4923159;29;20451;-39
2020/12/20 09:25:36;;;;;;;5.80;2.43;;;;;;;14.87;57.69;96770.47;4924571;28;20864;-39
2020/12/20 09:28:06;;;;;;;4.87;2.67;;;;;;;14.96;57.33;96781.06;4925682;28;20466;-44
2020/12/20 09:30:44;;;;;;;5.80;3.20;;;;;;;14.49;58.29;96785.59;4926577;29;20538;-45
2020/12/20 09:33:19;;;;;;;8.73;3.00;;;;;;;13.33;60.97;96781.00;4924773;28;20937;-44
2020/12/20 09:35:55;;;;;;;4.97;2.87;;;;;;;13.03;62.15;96782.25;4924337;28;20483;-45
2020/12/20 09:38:24;;;;;;;7.60;3.00;;;;;;;12.41;63.57;96790.88;4920012;28;20583;-44
2020/12/20 09:40:58;;;;;;;8.13;3.20;;;;;;;12.04;64.79;96794.19;4924230;29;21119;-44
2020/12/20 09:43:25;;;;;;;5.20;3.03;;;;;;;11.81;66.26;96797.44;4920430;28;20490;-45
2020/12/20 09:45:52;;;;;;;4.50;3.13;;;;;;;12.01;66.14;96797.00;4925804;29;20499;-45
2020/12/20 09:48:19;;;;;;;8.63;2.90;;;;;;;12.66;64.38;96792.69;4922464;28;21102;-45
2020/12/20 09:50:46;;;;;;;6.70;3.50;;;;;;;12.95;63.75;96790.66;4921474;29;20480;-45
2020/12/20 09:53:14;;;;;;;4.33;3.00;;;;;;;13.20;62.59;96787.19;4919159;28;20557;-44
2020/12/20 09:55:44;;;;;;;6.93;3.43;;;;;;;13.26;62.44;96784.97;4922316;28;20731;-45
2020/12/20 09:58:12;;;;;;;11.50;3.60;;;;;;;13.18;61.72;96794.28;4920147;28;20970;-44
2020/12/20 10:00:40;;;;;;;3.43;2.53;;;;;;;12.90;63.59;96802.31;4920142;29;20868;-44
2020/12/20 10:03:07;;;;;;;7.00;3.10;;;;;;;12.35;64.95;96804.31;4919081;28;20959;-44
2020/12/20 10:05:35;;;;;;;4.97;2.90;;;;;;;11.91;66.85;96801.13;4919455;29;20942;-45
2020/12/20 10:08:02;;;;;;;7.57;3.60;;;;;;;11.68;67.75;96796.53;4919609;28;20721;-45
2020/12/20 10:10:30;;;;;;;4.07;2.60;;;;;;;11.41;68.84;96806.03;4917370;29;20487;-45
2020/12/20 10:12:57;;;;;;;13.30;5.90;;;;;;;11.35;68.91;96803.81;4919342;29;20992;-47
2020/12/20 10:15:24;;;;;;;13.40;5.43;;;;;;;11.19;69.67;96797.06;4918118;28;20537;-45
2020/12/20 10:17:51;;;;;;;6.57;3.17;;;;;;;11.09;70.21;96809.78;4919527;29;20451;-45
2020/12/20 10:20:18;;;;;;;4.63;3.37;;;;;;;11.22;70.37;96800.31;4955563;28;20911;-45
2020/12/20 10:22:45;;;;;;;7.77;2.50;;;;;;;11.19;70.45;96803.06;4958375;28;20489;-45
2020/12/20 10:25:16;;;;;;;4.83;2.67;;;;;;;11.11;70.22;96799.28;4956491;28;20556;-45
2020/12/20 10:27:45;;;;;;;4.60;2.90;;;;;;;10.97;70.44;96792.28;4956134;28;20878;-45
2020/12/20 10:30:13;;;;;;;4.80;2.80;;;;;;;10.90;70.74;96809.22;4957121;28;20565;-45
2020/12/20 10:32:40;;;;;;;4.63;3.00;;;;;;;11.03;71.12;96798.88;4957791;28;20932;-45
2020/12/20 10:35:07;;;;;;;38.93;16.10;;;;;;;11.03;71.21;96799.72;4956842;28;20604;-44
2020/12/20 10:37:34;;;;;;;4.87;3.10;;;;;;;11.21;70.81;96801.22;4958890;28;20551;-45
2020/12/20 10:40:01;;;;;;;5.60;2.93;;;;;;;11.35;70.08;96801.19;4959092;28;20657;-46
2020/12/20 10:42:28;;;;;;;6.90;2.87;;;;;;;11.49;69.20;96795.97;4961951;28;20449;-45
2020/12/20 10:44:55;;;;;;;3.70;2.43;;;;;;;11.84;68.68;96794.63;4957043;28;20911;-44
2020/12/20 10:47:23;;;;;;;5.67;3.33;;;;;;;12.20;67.39;96797.47;4951675;28;20515;-45
2020/12/20 10:49:50;;;;;;;6.00;3.83;;;;;;;12.25;66.98;96782.38;4955945;28;20565;-45
2020/12/20 10:52:17;;;;;;;7.80;3.73;;;;;;;12.41;67.13;96793.47;4956021;28;20983;-45
2020/12/20 10:54:44;;;;;;;8.33;2.83;;;;;;;12.63;66.82;96793.72;4957563;28;21323;-45
2020/12/20 10:57:11;;;;;;;6.70;3.07;;;;;;;12.64;66.73;96792.78;4958693;28;20451;-50
2020/12/20 10:59:38;;;;;;;6.93;3.23;;;;;;;12.65;66.82;96794.44;4955058;28;20788;-49
2020/12/20 11:02:06;;;;;;;6.57;3.73;;;;;;;12.63;66.99;96787.66;4954873;28;20551;-49
2020/12/20 11:04:33;;;;;;;7.73;3.20;;;;;;;12.22;67.09;96730.34;4954158;28;21038;-49
2020/12/20 11:07:01;;;;;;;9.83;3.73;;;;;;;12.78;67.39;96798.75;4955877;28;20488;-50
2020/12/20 11:09:28;;;;;;;5.77;3.70;;;;;;;12.69;67.51;96796.75;4954974;28;20855;-49
2020/12/20 11:11:56;;;;;;;7.43;4.20;;;;;;;12.65;67.51;96797.06;4956766;28;20999;-49
2020/12/20 11:14:23;;;;;;;12.70;4.90;;;;;;;12.54;68.15;96794.34;4949448;28;20532;-49
2020/12/20 11:16:50;;;;;;;8.70;4.07;;;;;;;12.59;69.10;96801.88;4955116;28;20827;-47
2020/12/20 11:19:20;;;;;;;10.43;4.70;;;;;;;12.69;69.30;96801.16;4953456;28;20505;-47
2020/12/20 11:21:48;;;;;;;11.17;3.70;;;;;;;12.70;69.77;96803.63;4953307;28;20984;-47
2020/12/20 11:24:15;;;;;;;6.33;3.27;;;;;;;12.72;69.89;96795.72;4952956;28;20496;-47
2020/12/20 11:26:44;;;;;;;6.43;3.57;;;;;;;12.73;69.51;96794.75;4954690;28;20896;-47
2020/12/20 11:29:12;;;;;;;5.73;3.43;;;;;;;12.74;69.55;96783.38;4954095;28;20981;-47
2020/12/20 11:31:39;;;;;;;6.97;3.53;;;;;;;12.82;69.66;96791.53;4953622;28;21004;-47
2020/12/20 11:34:06;;;;;;;8.77;3.73;;;;;;;12.77;69.55;96785.81;4953937;28;20536;-47
2020/12/20 11:36:34;;;;;;;9.70;3.60;;;;;;;12.68;69.53;96775.97;4954140;28;20982;-47
2020/12/20 11:39:01;;;;;;;5.60;3.30;;;;;;;12.95;69.18;96784.56;4954154;28;20940;-47
2020/12/20 11:41:30;;;;;;;9.10;3.73;;;;;;;13.11;69.23;96772.13;4955100;28;20933;-47
2020/12/20 11:43:58;;;;;;;6.87;3.70;;;;;;;13.25;69.03;96772.00;4955259;28;20887;-46
2020/12/20 11:46:25;;;;;;;7.33;3.93;;;;;;;13.40;69.00;96763.09;4952276;28;20548;-47
2020/12/20 11:48:52;;;;;;;4.20;2.60;;;;;;;13.51;68.51;96763.19;4954301;28;20516;-47
2020/12/20 11:51:19;;;;;;;6.00;2.80;;;;;;;13.39;69.01;96764.88;4954179;28;20508;-47
2020/12/20 11:53:47;;;;;;;6.23;3.07;;;;;;;13.40;69.41;96776.16;4953437;28;20513;-48
2020/12/20 11:56:16;;;;;;;7.30;3.40;;;;;;;13.27;69.77;96770.13;4952464;28;20814;-47
2020/12/20 11:58:44;;;;;;;134.00;61.77;;;;;;;13.30;70.52;96768.16;4953574;28;20469;-46
2020/12/20 12:01:11;;;;;;;5.20;2.87;;;;;;;12.93;71.46;96771.59;4953823;28;20822;-47